Time;durP1;ratioP1;P1;durP2;ratioP2;P2;SDS_P1;SDS_P2;PMS_P1;PMS_P2;Temp;Humidity;BMP_temperature;BMP_pressure;BME280_temperature;BME280_humidity;BME280_pressure;Samples;Min_cycle;Max_cycle;Signal;HPM_P1;HPM_P2
2024/01/09 06:01:15;;;;;;;20.00;9.57;;;-3.30;66.00;;;;;;4500672;23;20104;-77
2024/01/09 06:03:17;;;;;;;21.27;10.10;;;-3.30;66.80;;;;;;4068647;29;20048;-77
2024/01/09 06:05:19;;;;;;;20.88;10.30;;;-3.30;66.00;;;;;;4068607;29;20096;-75
2024/01/09 06:07:22;;;;;;;21.70;11.00;;;-3.30;66.10;;;;;;4068678;29;20047;-78
2024/01/09 06:09:24;;;;;;;21.60;10.45;;;-3.30;65.90;;;;;;4071841;29;20116;-75
2024/01/09 06:11:26;;;;;;;22.33;11.13;;;-3.30;65.90;;;;;;4071799;29;20544;-74
2024/01/09 06:13:28;;;;;;;20.48;9.88;;;-3.30;65.70;;;;;;4071730;29;20048;-75
2024/01/09 06:15:28;;;;;;;22.70;10.15;;;-3.30;65.80;;;;;;4071835;29;20108;-77
2024/01/09 06:17:31;;;;;;;21.20;10.82;;;-3.30;66.00;;;;;;4071786;29;20454;-74
2024/01/09 06:19:33;;;;;;;22.40;10.07;;;-3.30;66.30;;;;;;4072069;29;20084;-75
2024/01/09 06:21:35;;;;;;;24.20;10.35;;;-3.30;66.50;;;;;;4071874;29;20064;-75
2024/01/09 06:23:37;;;;;;;23.35;11.50;;;-3.30;66.40;;;;;;4071747;29;20523;-75
2024/01/09 06:25:38;;;;;;;23.80;10.43;;;-3.30;66.00;;;;;;4071676;29;20052;-77
2024/01/09 06:27:40;;;;;;;23.08;10.52;;;-3.30;65.90;;;;;;4071681;29;20111;-76
2024/01/09 06:29:42;;;;;;;23.13;11.38;;;-3.30;66.00;;;;;;4071642;29;20048;-76
2024/01/09 06:31:44;;;;;;;24.75;11.55;;;-3.30;66.40;;;;;;4071671;29;20458;-76
2024/01/09 06:33:47;;;;;;;23.88;11.65;;;-3.30;66.20;;;;;;4071326;29;20055;-77
2024/01/09 06:35:49;;;;;;;22.55;11.50;;;-3.30;66.10;;;;;;4071341;29;20052;-78
2024/01/09 06:37:52;;;;;;;22.95;11.30;;;-3.30;66.30;;;;;;4071616;29;20481;-74
2024/01/09 06:39:54;;;;;;;25.15;11.32;;;-3.30;66.50;;;;;;4071587;29;20116;-76
2024/01/09 06:41:56;;;;;;;22.88;10.85;;;-3.30;66.50;;;;;;4070898;29;20123;-77
2024/01/09 06:43:58;;;;;;;23.52;10.98;;;-3.30;66.10;;;;;;4070997;29;20051;-76
2024/01/09 06:46:00;;;;;;;23.67;11.32;;;-3.30;66.10;;;;;;4071141;29;20499;-75
2024/01/09 06:48:02;;;;;;;22.25;11.02;;;-3.30;66.50;;;;;;4071227;29;20446;-75
2024/01/09 06:50:05;;;;;;;25.40;11.80;;;-3.30;66.00;;;;;;4071085;29;20103;-76
2024/01/09 06:52:07;;;;;;;24.13;11.35;;;-3.30;66.00;;;;;;4071041;29;20138;-76
2024/01/09 06:54:09;;;;;;;24.52;11.77;;;-3.40;66.10;;;;;;4071099;29;20109;-74
2024/01/09 06:56:10;;;;;;;25.13;12.38;;;-3.30;66.20;;;;;;4071078;29;20108;-76
2024/01/09 06:58:12;;;;;;;23.67;11.50;;;-3.30;66.40;;;;;;4070996;29;20115;-77
2024/01/09 07:00:16;;;;;;;25.80;11.30;;;-3.30;66.40;;;;;;4070982;29;20051;-76
2024/01/09 07:02:18;;;;;;;23.50;11.05;;;-3.30;66.70;;;;;;4039602;29;20189;-76
2024/01/09 07:04:20;;;;;;;22.75;10.55;;;-3.30;67.20;;;;;;4024345;29;20113;-75
2024/01/09 07:06:22;;;;;;;23.48;10.93;;;-3.30;67.40;;;;;;4024343;29;20608;-76
2024/01/09 07:08:24;;;;;;;25.58;11.57;;;-3.30;67.70;;;;;;4029281;29;20045;-75
2024/01/09 07:10:25;;;;;;;23.88;11.23;;;-3.30;67.80;;;;;;4039729;29;20483;-75
2024/01/09 07:12:27;;;;;;;22.70;10.75;;;-3.30;67.90;;;;;;4039831;29;20049;-77
2024/01/09 07:14:29;;;;;;;26.85;12.07;;;-3.30;67.60;;;;;;4039772;29;20481;-78
2024/01/09 07:16:31;;;;;;;27.73;13.52;;;-3.40;67.30;;;;;;4039693;29;20045;-74
2024/01/09 07:18:33;;;;;;;24.30;11.02;;;-3.40;67.60;;;;;;4039739;29;20097;-74
2024/01/09 07:20:35;;;;;;;22.52;10.70;;;-3.30;67.90;;;;;;4038293;29;20052;-77
2024/01/09 07:22:38;;;;;;;32.47;15.32;;;-3.40;67.50;;;;;;4039972;29;20053;-77
2024/01/09 07:24:40;;;;;;;43.17;20.63;;;-3.40;67.70;;;;;;4039452;29;20053;-77
2024/01/09 07:26:42;;;;;;;43.17;20.17;;;-3.40;68.10;;;;;;4039415;29;20109;-76
2024/01/09 07:28:44;;;;;;;30.20;14.65;;;-3.40;67.90;;;;;;4039723;29;20113;-74
2024/01/09 07:30:47;;;;;;;40.97;19.30;;;-3.40;68.00;;;;;;4039347;29;20109;-75
2024/01/09 07:32:48;;;;;;;28.90;13.05;;;-3.40;68.00;;;;;;4039548;29;20049;-75
2024/01/09 07:34:50;;;;;;;24.80;12.13;;;-3.50;68.30;;;;;;4039483;29;20482;-76
2024/01/09 07:36:52;;;;;;;22.52;10.52;;;-3.40;68.30;;;;;;4039601;29;20463;-75
2024/01/09 07:38:55;;;;;;;24.80;11.10;;;-3.40;68.50;;;;;;4039492;29;20049;-74
2024/01/09 07:40:57;;;;;;;25.08;11.65;;;-3.40;68.60;;;;;;4039308;29;20053;-77
2024/01/09 07:42:59;;;;;;;25.98;11.55;;;-3.40;68.10;;;;;;4039601;29;20129;-76
2024/01/09 07:45:02;;;;;;;25.83;11.65;;;-3.40;68.00;;;;;;4039437;29;20075;-77
2024/01/09 07:47:04;;;;;;;24.85;11.77;;;-3.40;68.30;;;;;;4039116;29;20057;-75
2024/01/09 07:49:06;;;;;;;26.00;11.43;;;-3.50;68.80;;;;;;4039165;29;20082;-76
2024/01/09 07:51:08;;;;;;;25.27;11.80;;;-3.40;69.10;;;;;;4039352;29;20112;-77
2024/01/09 07:53:10;;;;;;;22.85;11.45;;;-3.40;68.80;;;;;;4039089;29;20101;-75
2024/01/09 07:55:13;;;;;;;28.92;11.95;;;-3.40;69.20;;;;;;4039210;29;20045;-75
2024/01/09 07:57:15;;;;;;;25.27;11.80;;;-3.40;69.20;;;;;;4039411;29;20053;-75
2024/01/09 07:59:17;;;;;;;26.80;12.23;;;-3.40;69.00;;;;;;4038793;29;20148;-76
2024/01/09 08:01:20;;;;;;;23.52;11.20;;;-3.30;68.80;;;;;;4053662;29;20057;-76
2024/01/09 08:03:22;;;;;;;24.52;12.15;;;-3.30;68.60;;;;;;4069636;29;20044;-76
2024/01/09 08:05:23;;;;;;;26.38;12.50;;;-3.30;68.60;;;;;;4070482;29;20074;-75
2024/01/09 08:07:25;;;;;;;24.35;12.05;;;-3.30;68.20;;;;;;4070036;29;20116;-76
2024/01/09 08:09:27;;;;;;;26.23;12.77;;;-3.30;68.70;;;;;;4069927;29;20405;-77
2024/01/09 08:11:30;;;;;;;25.95;12.55;;;-3.30;69.20;;;;;;4069948;29;20056;-75
2024/01/09 08:13:32;;;;;;;26.98;12.68;;;-3.30;69.00;;;;;;4069873;29;20454;-75
2024/01/09 08:15:34;;;;;;;29.25;12.20;;;-3.30;69.00;;;;;;4069832;29;20104;-78
2024/01/09 08:17:36;;;;;;;27.13;12.60;;;-3.30;68.90;;;;;;4070256;29;20052;-77
2024/01/09 08:19:37;;;;;;;28.25;13.30;;;-3.20;68.30;;;;;;4069840;29;20052;-76
2024/01/09 08:21:40;;;;;;;31.98;13.27;;;-3.20;67.90;;;;;;4069556;29;20044;-77
2024/01/09 08:23:42;;;;;;;30.60;13.25;;;-3.20;68.20;;;;;;4069731;29;20072;-75
2024/01/09 08:25:43;;;;;;;26.80;13.10;;;-3.10;68.90;;;;;;4069601;29;20044;-76
2024/01/09 08:27:47;;;;;;;27.45;13.63;;;-3.00;68.40;;;;;;4069783;29;20056;-76
2024/01/09 08:29:48;;;;;;;27.55;12.82;;;-3.00;67.90;;;;;;4069705;29;20080;-76
2024/01/09 08:31:50;;;;;;;27.30;13.55;;;-3.00;67.50;;;;;;4069306;29;20158;-76
2024/01/09 08:33:52;;;;;;;26.65;13.10;;;-3.00;67.30;;;;;;4069764;29;20462;-75
2024/01/09 08:35:54;;;;;;;28.95;12.50;;;-2.90;67.70;;;;;;4069610;29;20044;-75
2024/01/09 08:37:56;;;;;;;30.67;13.68;;;-2.90;67.50;;;;;;4069649;29;20056;-74
2024/01/09 08:39:58;;;;;;;27.75;13.40;;;-2.80;66.70;;;;;;4069811;29;20052;-77
2024/01/09 08:41:59;;;;;;;26.38;13.25;;;-2.80;66.40;;;;;;4069974;29;20052;-77
2024/01/09 08:44:03;;;;;;;27.73;13.52;;;-2.70;65.90;;;;;;4069525;29;20099;-77
2024/01/09 08:46:05;;;;;;;26.63;13.23;;;-2.70;65.50;;;;;;4069479;29;20549;-75
2024/01/09 08:48:07;;;;;;;28.15;12.77;;;-2.70;65.40;;;;;;4069402;29;20458;-75
2024/01/09 08:50:08;;;;;;;24.33;13.00;;;-2.80;64.90;;;;;;4069349;29;20063;-77
2024/01/09 08:52:10;;;;;;;28.73;15.13;;;-2.80;64.70;;;;;;4069418;29;20103;-77
2024/01/09 08:54:12;;;;;;;36.60;16.33;;;-2.70;65.10;;;;;;4069271;29;20048;-77
2024/01/09 08:56:14;;;;;;;23.95;13.25;;;-2.60;64.70;;;;;;4069349;29;20048;-77
2024/01/09 08:58:16;;;;;;;25.73;12.68;;;-2.70;63.50;;;;;;4069108;29;20103;-77
2024/01/09 09:00:20;;;;;;;26.95;12.43;;;-2.80;63.60;;;;;;4069303;29;20410;-76
2024/01/09 09:02:22;;;;;;;28.75;14.30;;;-2.70;63.60;;;;;;4069179;29;20051;-78
2024/01/09 09:04:23;;;;;;;26.55;12.70;;;-2.70;63.60;;;;;;4069213;29;20044;-77
2024/01/09 09:06:25;;;;;;;28.92;13.93;;;-2.60;63.00;;;;;;4069287;29;20050;-76
2024/01/09 09:08:27;;;;;;;26.20;12.48;;;-2.60;62.90;;;;;;4069310;29;20044;-78
2024/01/09 09:10:29;;;;;;;26.90;13.05;;;-2.60;63.60;;;;;;4069011;29;20048;-80
2024/01/09 09:12:31;;;;;;;28.40;13.57;;;-2.50;63.30;;;;;;4069328;29;20052;-76
2024/01/09 09:14:32;;;;;;;26.27;12.73;;;-2.50;62.60;;;;;;4067735;29;20044;-78
2024/01/09 09:16:36;;;;;;;25.40;12.88;;;-2.40;62.20;;;;;;4067172;29;20048;-75
2024/01/09 09:18:36;;;;;;;24.38;13.00;;;-2.50;61.80;;;;;;4066985;29;20096;-78
2024/01/09 09:20:38;;;;;;;26.00;12.75;;;-2.50;62.10;;;;;;4067049;29;20052;-78
2024/01/09 09:22:40;;;;;;;24.23;12.60;;;-2.40;62.10;;;;;;4066805;29;20111;-78
2024/01/09 09:24:43;;;;;;;26.70;12.85;;;-2.40;62.30;;;;;;4067035;29;20394;-77
2024/01/09 09:26:45;;;;;;;23.55;12.63;;;-2.30;62.10;;;;;;4066794;29;20131;-77
2024/01/09 09:28:47;;;;;;;26.88;12.35;;;-2.40;61.40;;;;;;4066965;29;20056;-77
2024/01/09 09:30:48;;;;;;;27.83;12.93;;;-2.50;61.30;;;;;;4066975;29;20071;-78
2024/01/09 09:32:51;;;;;;;25.35;12.57;;;-2.40;62.10;;;;;;4067008;29;20062;-77
2024/01/09 09:34:53;;;;;;;25.35;12.50;;;-2.40;61.20;;;;;;4066397;29;20099;-77
2024/01/09 09:36:54;;;;;;;26.60;12.90;;;-2.40;61.10;;;;;;4066769;29;20052;-76
2024/01/09 09:38:55;;;;;;;26.73;12.82;;;-2.30;61.60;;;;;;4066486;29;20092;-76
2024/01/09 09:40:58;;;;;;;26.63;12.85;;;-2.20;61.50;;;;;;4066714;29;20056;-79
2024/01/09 09:43:03;;;;;;;23.08;11.85;;;-2.20;60.90;;;;;;4066040;29;20546;-80
2024/01/09 09:45:11;;;;;;;29.63;14.30;;;-2.30;60.60;;;;;;4064725;29;20135;-79
2024/01/09 09:47:15;;;;;;;24.02;12.15;;;-2.30;61.00;;;;;;4067005;29;20135;-76
2024/01/09 09:49:20;;;;;;;24.83;12.38;;;-2.30;60.80;;;;;;4066261;29;20277;-78
2024/01/09 09:51:24;;;;;;;26.52;12.52;;;-2.20;60.70;;;;;;4066337;29;20115;-77
2024/01/09 09:53:30;;;;;;;25.88;12.52;;;-2.20;60.80;;;;;;4066701;29;20469;-77
2024/01/09 09:55:32;;;;;;;23.33;11.93;;;-2.20;60.90;;;;;;4066797;29;20048;-76
2024/01/09 09:57:34;;;;;;;26.40;13.27;;;-2.10;61.40;;;;;;4066614;29;20048;-78
2024/01/09 09:59:36;;;;;;;27.08;13.02;;;-2.00;61.20;;;;;;4066543;29;20056;-77
2024/01/09 10:01:39;;;;;;;26.55;13.23;;;-2.00;60.40;;;;;;4065623;29;20048;-75
2024/01/09 10:03:50;;;;;;;26.13;12.90;;;-2.00;60.60;;;;;;4066330;29;20051;-78
2024/01/09 10:05:55;;;;;;;26.60;12.38;;;-1.90;60.90;;;;;;4066731;29;20083;-76
2024/01/09 10:07:58;;;;;;;24.70;12.55;;;-1.90;60.30;;;;;;4067038;29;20111;-76
2024/01/09 10:10:03;;;;;;;23.88;12.38;;;-1.90;60.40;;;;;;4066728;29;20060;-76
2024/01/09 10:12:04;;;;;;;24.33;11.85;;;-1.90;59.70;;;;;;4066362;29;20055;-76
2024/01/09 10:14:09;;;;;;;24.08;12.07;;;-1.90;59.60;;;;;;4066073;29;20059;-77
2024/01/09 10:16:11;;;;;;;22.38;11.25;;;-1.90;59.90;;;;;;4066486;29;20052;-76
2024/01/09 10:18:13;;;;;;;25.80;12.65;;;-1.80;60.00;;;;;;4066684;29;20052;-76
2024/01/09 10:20:15;;;;;;;22.75;11.95;;;-1.80;60.00;;;;;;4066631;29;20056;-78
2024/01/09 10:22:18;;;;;;;24.65;13.32;;;-1.70;59.70;;;;;;4066400;29;20067;-79
2024/01/09 10:24:20;;;;;;;23.15;12.15;;;-1.70;59.50;;;;;;4066482;29;20060;-78
2024/01/09 10:26:24;;;;;;;25.15;12.10;;;-1.70;59.50;;;;;;4065601;29;20107;-78
2024/01/09 10:28:25;;;;;;;23.92;12.23;;;-1.70;59.20;;;;;;4066473;29;20428;-78
2024/01/09 10:30:27;;;;;;;22.73;11.93;;;-1.70;58.70;;;;;;4066450;29;20099;-78
2024/01/09 10:32:29;;;;;;;25.13;12.50;;;-1.70;58.80;;;;;;4066329;29;20099;-77
2024/01/09 10:34:31;;;;;;;23.45;11.73;;;-1.70;59.00;;;;;;4066540;29;20135;-78
2024/01/09 10:36:33;;;;;;;22.60;12.20;;;-1.60;59.40;;;;;;4066323;29;20056;-79
2024/01/09 10:38:37;;;;;;;24.85;12.20;;;-1.50;59.20;;;;;;4066027;29;20055;-78
2024/01/09 10:40:39;;;;;;;27.30;12.50;;;-1.40;59.50;;;;;;4066311;29;20052;-76
2024/01/09 10:42:47;;;;;;;23.77;12.63;;;-1.40;59.00;;;;;;4066221;29;20052;-78
2024/01/09 10:44:50;;;;;;;24.02;12.13;;;-1.30;59.00;;;;;;4064452;29;20447;-79
2024/01/09 10:46:52;;;;;;;23.52;12.48;;;-1.30;58.80;;;;;;4066518;29;20103;-80
2024/01/09 10:48:54;;;;;;;26.52;12.50;;;-1.30;58.30;;;;;;4066472;29;20127;-80
2024/01/09 10:50:57;;;;;;;25.58;12.38;;;-1.20;58.80;;;;;;4065778;29;20391;-78
2024/01/09 10:53:00;;;;;;;25.00;12.70;;;-1.20;58.60;;;;;;4066231;29;20446;-80
2024/01/09 10:55:06;;;;;;;24.50;11.95;;;-1.20;58.80;;;;;;4068486;29;20194;-78
2024/01/09 10:57:12;;;;;;;21.23;11.10;;;-1.20;58.50;;;;;;4068628;29;20187;-77
2024/01/09 10:59:15;;;;;;;23.48;12.07;;;-1.10;58.00;;;;;;4053373;29;20131;-79
2024/01/09 11:01:17;;;;;;;29.00;12.18;;;-1.10;57.90;;;;;;4053177;29;20505;-79
2024/01/09 11:03:20;;;;;;;24.90;12.18;;;-1.00;58.00;;;;;;4052774;29;20117;-79
2024/01/09 11:05:22;;;;;;;26.10;12.38;;;-1.00;57.70;;;;;;4053389;29;20657;-80
2024/01/09 11:07:24;;;;;;;24.15;12.27;;;-1.00;57.90;;;;;;4053327;29;20096;-81
2024/01/09 11:09:26;;;;;;;22.48;11.10;;;-1.00;57.50;;;;;;4053424;29;20096;-79
2024/01/09 11:11:30;;;;;;;23.23;11.85;;;-1.00;57.30;;;;;;4053258;29;20121;-81
2024/01/09 11:13:35;;;;;;;24.20;11.48;;;-0.90;57.60;;;;;;4053162;29;20100;-79
2024/01/09 11:15:46;;;;;;;22.20;11.10;;;-0.90;57.10;;;;;;4053243;29;20057;-80
2024/01/09 11:17:52;;;;;;;26.35;12.23;;;-0.90;56.70;;;;;;4053323;29;20060;-80
2024/01/09 11:19:54;;;;;;;24.98;11.30;;;-0.90;56.60;;;;;;4053248;29;20057;-78
2024/01/09 11:21:56;;;;;;;23.63;11.77;;;-0.90;56.30;;;;;;4053085;29;20052;-80
2024/01/09 11:24:00;;;;;;;24.40;12.32;;;-0.80;56.70;;;;;;4053183;29;20549;-80
2024/01/09 11:26:03;;;;;;;21.30;11.50;;;-0.80;56.70;;;;;;4058557;29;20102;-79
2024/01/09 11:28:07;;;;;;;21.98;11.73;;;-0.70;56.90;;;;;;4068578;29;20058;-79
2024/01/09 11:30:14;;;;;;;22.77;11.32;;;-0.60;56.40;;;;;;4068510;29;20103;-80
2024/01/09 11:32:16;;;;;;;32.72;14.35;;;-0.60;56.20;;;;;;4074157;29;20064;-76
2024/01/09 11:34:28;;;;;;;30.40;15.10;;;-0.50;56.40;;;;;;4077444;29;20056;-79
2024/01/09 11:36:33;;;;;;;27.38;13.05;;;-0.50;56.20;;;;;;4070763;29;20060;-79
2024/01/09 11:38:34;;;;;;;20.92;10.88;;;-0.50;55.80;;;;;;4068376;29;20051;-79
2024/01/09 11:40:36;;;;;;;22.75;11.38;;;-0.50;55.20;;;;;;4068293;29;20056;-79
2024/01/09 11:42:37;;;;;;;22.20;10.95;;;-0.50;54.50;;;;;;4068743;29;20477;-79
2024/01/09 11:44:40;;;;;;;21.70;10.63;;;-0.40;55.00;;;;;;4066686;29;20099;-79
2024/01/09 11:46:42;;;;;;;24.80;11.40;;;-0.30;55.20;;;;;;4068426;29;20056;-77
2024/01/09 11:48:45;;;;;;;24.20;11.20;;;-0.20;55.40;;;;;;4069128;29;20553;-80
2024/01/09 11:50:47;;;;;;;21.92;10.80;;;-0.20;55.00;;;;;;4068725;29;20060;-79
2024/01/09 11:52:49;;;;;;;21.83;11.57;;;-0.10;54.60;;;;;;4069319;29;20102;-77
2024/01/09 11:54:51;;;;;;;21.33;10.75;;;0.00;54.40;;;;;;4069096;29;20064;-79
2024/01/09 11:56:53;;;;;;;22.98;11.43;;;0.00;54.20;;;;;;4068516;29;20052;-78
2024/01/09 11:58:56;;;;;;;20.33;11.30;;;0.10;54.30;;;;;;4069063;29;20458;-76
2024/01/09 12:01:00;;;;;;;22.23;10.77;;;0.10;54.00;;;;;;4068727;29;20095;-78
2024/01/09 12:03:01;;;;;;;20.88;11.10;;;0.20;53.60;;;;;;4068910;29;20473;-78
2024/01/09 12:05:04;;;;;;;22.45;10.65;;;0.20;53.60;;;;;;4068304;29;20056;-78
2024/01/09 12:07:06;;;;;;;25.27;12.55;;;0.30;53.10;;;;;;4067887;29;20119;-78
2024/01/09 12:09:09;;;;;;;22.08;11.23;;;0.40;53.10;;;;;;4068091;29;20108;-77
2024/01/09 12:11:11;;;;;;;21.88;10.75;;;0.40;53.10;;;;;;4055762;29;20135;-78
2024/01/09 12:13:17;;;;;;;20.33;10.70;;;0.50;53.10;;;;;;4054385;29;20546;-77
2024/01/09 12:15:19;;;;;;;23.40;11.23;;;0.60;52.50;;;;;;4061648;29;20398;-80
2024/01/09 12:17:27;;;;;;;22.20;10.93;;;0.70;52.70;;;;;;4067161;29;20170;-77
2024/01/09 12:19:29;;;;;;;22.02;10.60;;;0.80;52.30;;;;;;4066954;29;20052;-79
2024/01/09 12:21:33;;;;;;;21.20;11.02;;;0.80;52.20;;;;;;4066660;29;20176;-79
2024/01/09 12:23:35;;;;;;;20.45;10.18;;;0.80;51.40;;;;;;4067056;29;20110;-78
2024/01/09 12:25:37;;;;;;;20.13;10.48;;;0.90;51.70;;;;;;4067317;29;20556;-80
2024/01/09 12:27:39;;;;;;;24.85;11.48;;;1.00;51.50;;;;;;4066820;29;20048;-78
2024/01/09 12:29:42;;;;;;;21.75;11.35;;;1.00;50.90;;;;;;4067338;29;20439;-79
2024/01/09 12:31:45;;;;;;;22.65;10.70;;;1.10;50.50;;;;;;4067308;29;20409;-79
2024/01/09 12:33:47;;;;;;;19.63;10.18;;;1.20;50.90;;;;;;4066963;29;20060;-78
2024/01/09 12:35:49;;;;;;;21.48;10.30;;;1.30;50.80;;;;;;4067425;29;20060;-80
2024/01/09 12:37:51;;;;;;;21.08;10.70;;;1.40;50.50;;;;;;4067145;29;20109;-77
2024/01/09 12:39:59;;;;;;;19.83;10.15;;;1.60;50.20;;;;;;4066967;29;20107;-79
2024/01/09 12:42:10;;;;;;;22.88;10.05;;;1.70;50.10;;;;;;4066845;29;20055;-76
2024/01/09 12:44:11;;;;;;;21.25;9.93;;;1.90;49.60;;;;;;4064895;29;20048;-79
2024/01/09 12:46:13;;;;;;;23.00;10.70;;;2.10;49.40;;;;;;4067009;29;20063;-78
2024/01/09 12:48:15;;;;;;;21.80;10.90;;;2.30;49.40;;;;;;4066939;29;20135;-80
2024/01/09 12:50:28;;;;;;;20.92;10.75;;;2.50;48.40;;;;;;4066719;29;20052;-79
2024/01/09 12:52:31;;;;;;;19.75;10.05;;;2.80;47.60;;;;;;4066921;29;20051;-79
2024/01/09 12:54:34;;;;;;;20.23;10.75;;;3.30;47.50;;;;;;4066597;29;20521;-80
2024/01/09 12:56:36;;;;;;;18.10;9.40;;;3.90;46.10;;;;;;4066785;29;20410;-78
2024/01/09 12:58:42;;;;;;;17.92;9.98;;;6.10;43.90;;;;;;4066699;29;20078;-80
2024/01/09 13:00:43;;;;;;;;;;;9.50;37.20;;;;;;4067065;29;20056;-77
2024/01/09 13:02:45;;;;;;;17.98;9.57;;;12.10;31.60;;;;;;4066814;29;20173;-80
2024/01/09 13:04:48;;;;;;;19.65;10.18;;;13.90;28.50;;;;;;4066579;29;20467;-79
2024/01/09 13:06:51;;;;;;;19.20;10.85;;;15.30;25.90;;;;;;4066553;29;20056;-80
2024/01/09 13:08:53;;;;;;;16.85;9.88;;;16.60;24.40;;;;;;4066702;29;20509;-79
2024/01/09 13:10:55;;;;;;;19.55;10.52;;;17.70;22.90;;;;;;4066270;29;20048;-79
2024/01/09 13:12:56;;;;;;;17.00;10.60;;;18.70;21.60;;;;;;4066509;29;20051;-79
2024/01/09 13:14:57;;;;;;;17.10;10.73;;;19.50;21.20;;;;;;4066472;29;20080;-80
2024/01/09 13:16:59;;;;;;;16.85;10.48;;;20.30;20.30;;;;;;4066269;29;20559;-79
2024/01/09 13:19:01;;;;;;;18.95;10.85;;;20.70;19.60;;;;;;4066098;29;20557;-75
2024/01/09 13:21:04;;;;;;;16.05;10.40;;;21.30;19.00;;;;;;4067044;29;20052;-79
2024/01/09 13:23:06;;;;;;;17.90;11.20;;;22.00;18.50;;;;;;4066423;29;20512;-78
2024/01/09 13:25:08;;;;;;;17.13;11.20;;;22.50;18.20;;;;;;4066699;29;20331;-77
2024/01/09 13:27:10;;;;;;;15.27;9.93;;;22.90;17.40;;;;;;4066306;29;20056;-77
2024/01/09 13:29:12;;;;;;;16.98;10.77;;;23.40;16.90;;;;;;4066831;29;20108;-80
2024/01/09 13:31:14;;;;;;;17.08;10.18;;;23.80;16.60;;;;;;4066735;29;20052;-79
2024/01/09 13:33:16;;;;;;;18.42;11.07;;;23.10;15.90;;;;;;4066721;29;20060;-80
2024/01/09 13:35:18;;;;;;;17.48;10.65;;;23.60;16.20;;;;;;4066774;29;20386;-78
2024/01/09 13:37:20;;;;;;;16.77;11.45;;;24.20;16.10;;;;;;4066626;29;20056;-79
2024/01/09 13:39:24;;;;;;;16.20;10.10;;;24.70;15.00;;;;;;4066266;29;20056;-75
2024/01/09 13:41:26;;;;;;;16.55;11.30;;;25.20;14.70;;;;;;4066567;29;20172;-78
2024/01/09 13:43:27;;;;;;;16.33;9.95;;;25.70;14.40;;;;;;4066223;29;20060;-78
2024/01/09 13:45:29;;;;;;;16.15;11.18;;;26.00;14.10;;;;;;4064637;29;20056;-78
2024/01/09 13:47:31;;;;;;;15.70;10.60;;;26.40;14.10;;;;;;4066309;29;20044;-80
2024/01/09 13:49:32;;;;;;;17.48;10.90;;;26.80;13.60;;;;;;4066454;29;20052;-78
2024/01/09 13:51:34;;;;;;;15.00;9.95;;;26.90;13.90;;;;;;4065945;29;20056;-79
2024/01/09 13:53:36;;;;;;;15.65;10.77;;;26.80;13.50;;;;;;4066230;29;20558;-78
2024/01/09 13:55:39;;;;;;;15.35;10.60;;;27.20;13.80;;;;;;4066517;29;20056;-77
2024/01/09 13:57:42;;;;;;;14.88;10.43;;;27.60;13.20;;;;;;4066459;29;20048;-79
2024/01/09 13:59:44;;;;;;;14.93;10.63;;;27.90;13.00;;;;;;4066550;29;20130;-79
2024/01/09 14:01:46;;;;;;;15.55;10.68;;;27.20;12.60;;;;;;4066210;29;20060;-79
2024/01/09 14:03:47;;;;;;;15.60;10.45;;;26.70;13.10;;;;;;4065758;29;20056;-78
2024/01/09 14:05:49;;;;;;;14.18;10.63;;;26.60;13.90;;;;;;4066324;29;20048;-77
2024/01/09 14:07:50;;;;;;;14.80;10.35;;;27.20;12.70;;;;;;4068435;29;20051;-76
2024/01/09 14:09:52;;;;;;;16.63;10.75;;;27.60;12.80;;;;;;4068207;29;20111;-74
2024/01/09 14:11:55;;;;;;;15.15;10.55;;;27.70;12.70;;;;;;4066753;29;20131;-79
2024/01/09 14:13:58;;;;;;;13.98;10.18;;;27.80;12.40;;;;;;4066302;29;20076;-78
2024/01/09 14:15:59;;;;;;;15.02;10.60;;;27.70;12.20;;;;;;4066867;29;20484;-76
2024/01/09 14:18:00;;;;;;;13.10;9.57;;;27.40;12.40;;;;;;4066794;29;20145;-77
2024/01/09 14:20:03;;;;;;;15.88;10.38;;;27.10;12.30;;;;;;4066587;29;20399;-79
2024/01/09 14:22:05;;;;;;;14.38;10.27;;;27.20;12.30;;;;;;4066442;29;20079;-80
2024/01/09 14:24:07;;;;;;;14.25;10.20;;;27.20;12.20;;;;;;4066469;29;20103;-81
2024/01/09 14:26:09;;;;;;;13.80;9.77;;;27.20;12.10;;;;;;4066244;29;20079;-80
2024/01/09 14:28:12;;;;;;;13.70;9.68;;;27.30;12.10;;;;;;4066471;29;20044;-79
2024/01/09 14:30:18;;;;;;;15.63;10.05;;;26.30;11.90;;;;;;4069821;29;20394;-78
2024/01/09 14:32:20;;;;;;;13.98;10.07;;;26.10;12.40;;;;;;4069448;29;20155;-80
2024/01/09 14:34:21;;;;;;;14.52;9.77;;;26.10;12.30;;;;;;4069590;29;20533;-77
2024/01/09 14:36:23;;;;;;;14.10;9.73;;;25.70;12.50;;;;;;4069712;29;20096;-78
2024/01/09 14:38:25;;;;;;;15.18;9.63;;;24.40;12.80;;;;;;4070047;29;20052;-79
2024/01/09 14:40:28;;;;;;;13.82;9.55;;;23.70;13.40;;;;;;4069988;29;20083;-79
2024/01/09 14:42:30;;;;;;;14.15;10.00;;;22.90;13.70;;;;;;4069330;29;20577;-77
2024/01/09 14:44:33;;;;;;;14.90;9.65;;;21.50;14.00;;;;;;4067370;29;20056;-80
2024/01/09 14:46:35;;;;;;;15.43;9.77;;;18.50;15.90;;;;;;4069238;29;20055;-80
2024/01/09 14:48:37;;;;;;;13.32;9.43;;;15.50;18.00;;;;;;4069225;29;20119;-79
2024/01/09 14:50:39;;;;;;;14.82;9.85;;;13.30;20.40;;;;;;4068675;29;20055;-80
2024/01/09 14:52:41;;;;;;;14.82;9.73;;;12.40;21.30;;;;;;4069233;29;20560;-79
2024/01/09 14:54:43;;;;;;;15.70;10.18;;;11.80;22.10;;;;;;4069075;29;20142;-79
2024/01/09 14:56:45;;;;;;;14.98;9.13;;;11.10;22.90;;;;;;4069277;29;20056;-77
2024/01/09 14:58:47;;;;;;;15.63;9.50;;;10.20;23.60;;;;;;4068990;29;20103;-79
2024/01/09 15:00:51;;;;;;;14.35;9.23;;;9.80;24.50;;;;;;4069001;29;20132;-78
2024/01/09 15:02:54;;;;;;;15.93;9.98;;;9.60;25.00;;;;;;4071425;29;20551;-76
2024/01/09 15:04:57;;;;;;;16.23;9.65;;;8.90;25.40;;;;;;4068937;29;20048;-77
2024/01/09 15:06:59;;;;;;;16.50;9.95;;;8.60;26.10;;;;;;4069344;29;20478;-77
2024/01/09 15:09:01;;;;;;;15.05;9.52;;;8.20;26.50;;;;;;4068959;29;20128;-79
2024/01/09 15:11:03;;;;;;;16.23;9.80;;;8.00;27.20;;;;;;4068858;29;20494;-79
2024/01/09 15:13:05;;;;;;;17.25;9.95;;;8.30;27.80;;;;;;4068376;29;20048;-80
2024/01/09 15:15:08;;;;;;;17.50;10.50;;;9.00;27.10;;;;;;4068366;29;20549;-77
2024/01/09 15:17:10;;;;;;;15.25;8.93;;;8.40;26.80;;;;;;4068413;29;20056;-78
2024/01/09 15:19:12;;;;;;;16.15;9.43;;;7.60;27.60;;;;;;4068615;29;20058;-83
2024/01/09 15:21:13;;;;;;;16.60;9.60;;;7.00;28.50;;;;;;4070605;29;20048;-78
2024/01/09 15:23:15;;;;;;;15.95;9.48;;;6.20;29.70;;;;;;4068620;29;20131;-76
2024/01/09 15:25:17;;;;;;;17.33;9.88;;;5.70;31.00;;;;;;4068776;29;20386;-79
2024/01/09 15:27:18;;;;;;;17.88;9.80;;;5.30;31.70;;;;;;4067974;29;20128;-78
2024/01/09 15:29:20;;;;;;;16.10;9.35;;;5.00;32.70;;;;;;4068929;29;20052;-78
2024/01/09 15:31:22;;;;;;;18.27;9.80;;;4.80;33.50;;;;;;4068618;29;20055;-78
2024/01/09 15:33:26;;;;;;;18.83;9.30;;;4.70;33.70;;;;;;4068576;29;20079;-78
2024/01/09 15:35:28;;;;;;;18.20;10.27;;;4.30;34.50;;;;;;4068742;29;20140;-77
2024/01/09 15:37:31;;;;;;;16.45;9.27;;;4.00;34.90;;;;;;4072704;29;20478;-79
2024/01/09 15:39:33;;;;;;;17.67;10.07;;;3.90;36.00;;;;;;4068373;29;20409;-80
2024/01/09 15:41:35;;;;;;;18.48;9.90;;;3.80;36.20;;;;;;4069869;29;20080;-78
2024/01/09 15:43:37;;;;;;;17.80;9.07;;;3.60;36.50;;;;;;4070891;29;20052;-76
2024/01/09 15:45:38;;;;;;;16.08;9.40;;;3.50;37.10;;;;;;4065930;29;20387;-78
2024/01/09 15:47:40;;;;;;;21.25;10.23;;;3.40;37.70;;;;;;4067621;29;20131;-78
2024/01/09 15:49:43;;;;;;;19.17;9.75;;;3.10;38.30;;;;;;4068300;29;20167;-78
2024/01/09 15:51:45;;;;;;;21.55;11.13;;;2.80;38.80;;;;;;4068054;29;20107;-76
2024/01/09 15:53:48;;;;;;;18.17;10.27;;;2.70;39.30;;;;;;4068378;29;20055;-77
2024/01/09 15:55:50;;;;;;;21.40;9.93;;;2.60;39.70;;;;;;4068112;29;20056;-79
2024/01/09 15:57:53;;;;;;;19.25;9.63;;;2.60;40.10;;;;;;4067769;29;20052;-76
2024/01/09 15:59:55;;;;;;;18.88;9.82;;;2.50;40.30;;;;;;4068092;29;20071;-78
2024/01/09 16:01:57;;;;;;;18.27;9.88;;;2.30;40.80;;;;;;4067821;29;20454;-75
2024/01/09 16:03:59;;;;;;;19.63;9.52;;;2.10;41.20;;;;;;4067410;29;20107;-79
2024/01/09 16:06:05;;;;;;;16.98;8.90;;;1.90;41.90;;;;;;4067650;29;20128;-79
2024/01/09 16:08:10;;;;;;;19.35;9.85;;;1.90;42.00;;;;;;4066723;29;20090;-79
2024/01/09 16:10:12;;;;;;;18.30;9.95;;;1.80;42.10;;;;;;4067789;29;20040;-78
2024/01/09 16:12:15;;;;;;;20.02;9.95;;;1.60;42.90;;;;;;4067995;29;20056;-80
2024/01/09 16:14:17;;;;;;;20.27;9.75;;;1.50;43.20;;;;;;4067501;29;20083;-79
2024/01/09 16:16:21;;;;;;;19.17;9.45;;;1.50;43.30;;;;;;4068075;29;20867;-77
2024/01/09 16:18:23;;;;;;;18.95;10.27;;;1.30;43.70;;;;;;4068094;29;20051;-78
2024/01/09 16:20:24;;;;;;;18.42;10.05;;;1.00;44.50;;;;;;4068206;29;20431;-77
2024/01/09 16:22:28;;;;;;;17.40;9.57;;;1.00;44.80;;;;;;4068299;29;20457;-78
2024/01/09 16:24:29;;;;;;;15.65;7.63;;;0.90;45.10;;;;;;4067667;29;20100;-76